Aviation Digital Data Service (ADDS)

Output produced by METARs form (1157 UTC 23 September 2018)
found at http://www.aviationweather.gov/metar/data/
 
KHBG 231153Z AUTO 00000KT 10SM CLR 22/21 A2999 RMK AO2 SLP151 70007 T02170206 10233 20217 53009 TSNO
KHBG 231053Z AUTO 00000KT 10SM CLR 22/21 A2997 RMK AO2 SLP146 T02170206 TSNO
KHBG 230953Z AUTO 00000KT 9SM CLR 22/22 A2996 RMK AO2 SLP144 T02220217 TSNO
KHBG 230853Z AUTO 00000KT 10SM CLR 22/22 A2996 RMK AO2 SLP142 T02220217 56008 TSNO
KHBG 230753Z AUTO 00000KT 10SM CLR 23/22 A2996 RMK AO2 SLP143 T02280217 TSNO
KHBG 230653Z AUTO 00000KT 10SM CLR 23/22 A2997 RMK AO2 SLP147 T02330222 TSNO
KHBG 230553Z AUTO 00000KT 10SM CLR 23/22 A2998 RMK AO2 SLP150 T02280222 10256 20228 403220228 58009 TSNO
KHBG 230453Z AUTO 00000KT 10SM FEW032 23/22 A2999 RMK AO2 SLP153 T02330222 TSNO
KHBG 230353Z AUTO 00000KT 10SM CLR 23/22 A3000 RMK AO2 SLP157 T02330222 TSNO
KHBG 230253Z AUTO 00000KT 10SM CLR 23/22 A3001 RMK AO2 SLP159 T02330222 51010 TSNO
KHBG 230153Z AUTO 00000KT 10SM CLR 24/22 A3001 RMK AO2 SLP158 T02440222 TSNO
KHBG 230053Z AUTO 13004KT 10SM BKN110 24/22 A2999 RMK AO2 SLP151 T02440222 TSNO
KHBG 222353Z AUTO 00000KT 10SM FEW110 26/22 A2998 RMK AO2 SLP149 60007 T02560217 10322 20244 53004 TSNO
KHBG 222253Z AUTO 21005KT 10SM FEW110 26/22 A2997 RMK AO2 SLP147 T02610222 TSNO
KHBG 222153Z AUTO 18008KT 10SM CLR 29/23 A2996 RMK AO2 SLP143 T02940228 TSNO
KHBG 222053Z AUTO 00000KT 10SM CLR 27/24 A2997 RMK AO2 RAE1956 SLP144 P0000 60007 T02670239 58004 TSNO
KHBG 221953Z AUTO 06004KT 10SM -RA FEW045 SCT065 OVC095 24/23 A2998 RMK AO2 WSHFT 1902 RAB17 SLP150 P0007 T02440228 TSNO
KHBG 221949Z AUTO 05007KT 7SM -RA FEW048 SCT065 OVC095 25/23 A2998 RMK AO2 WSHFT 1902 RAB17 P0007 TSNO
KHBG 221938Z AUTO 23006KT 2 1/2SM +RA BR FEW041 BKN070 OVC085 25/23 A2998 RMK AO2 WSHFT 1902 RAB17 P0006 T02500228 TSNO
KHBG 221922Z AUTO 18012KT 8SM RA FEW032 BKN041 OVC060 26/22 A2999 RMK AO2 WSHFT 1902 RAB17 P0000 T02560222 TSNO
KHBG 221853Z AUTO 07009KT 10SM FEW050 SCT070 32/23 A2998 RMK AO2 SLP148 T03220233 TSNO
KHBG 221753Z AUTO 14007KT 10SM FEW035 31/23 A3001 RMK AO2 SLP158 T03110228 10317 20228 58013 TSNO
KHBG 221653Z AUTO 14004KT 10SM FEW026 BKN032 BKN039 30/23 A3004 RMK AO2 SLP169 T03000228 TSNO
KHBG 221649Z AUTO 16006KT 10SM SCT029 BKN039 BKN048 30/23 A3004 RMK AO2 TSNO
KHBG 221638Z AUTO 00000KT 10SM BKN027 BKN034 BKN050 31/23 A3004 RMK AO2 T03060233 TSNO
KHBG 221553Z AUTO 00000KT 10SM FEW022 29/23 A3005 RMK AO2 SLP171 T02940233 TSNO
KHBG 221453Z AUTO 08005KT 10SM CLR 28/23 A3005 RMK AO2 SLP171 T02780233 50004 TSNO
KHBG 221353Z AUTO 00000KT 10SM FEW022 26/22 A3005 RMK AO2 SLP174 T02560222 TSNO
KHBG 221253Z AUTO 00000KT 10SM CLR 24/22 A3004 RMK AO2 SLP168 T02390222 TSNO
KHBG 221153Z AUTO 00000KT 10SM FEW024 23/22 A3003 RMK AO2 SLP167 T02280217 10244 20228 53005 TSNO
KHBG 221053Z AUTO 00000KT 10SM CLR 23/22 A3003 RMK AO2 SLP165 T02330222 TSNO
KHBG 220953Z AUTO 00000KT 10SM FEW060 23/22 A3001 RMK AO2 SLP159 T02280217 TSNO
KHBG 220853Z AUTO 00000KT 10SM CLR 23/22 A3002 RMK AO2 SLP162 T02330222 56012 TSNO
KHBG 220753Z AUTO 00000KT 10SM CLR 24/22 A3003 RMK AO2 SLP164 T02390222 TSNO
KHBG 220653Z AUTO 12005KT 10SM CLR 24/22 A3003 RMK AO2 SLP167 T02390222 TSNO
KHBG 220553Z AUTO 10003KT 10SM CLR 24/23 A3005 RMK AO2 SLP174 T02440228 10272 20244 403330228 58008 TSNO
KHBG 220453Z AUTO 00000KT 10SM CLR 26/23 A3008 RMK AO2 SLP181 T02560228 TSNO
KHBG 220353Z AUTO 00000KT 10SM FEW050 26/23 A3009 RMK AO2 SLP185 T02560228 TSNO
KHBG 220320Z AUTO 13007KT 10SM FEW018 SCT026 OVC030 26/23 A3009 RMK AO2 T02560233 TSNO
KHBG 220310Z AUTO 11006KT 10SM FEW016 BKN028 OVC090 26/23 A3008 RMK AO2 T02560228 TSNO
KHBG 220253Z AUTO 19003KT 10SM SCT050 SCT055 BKN090 25/23 A3008 RMK AO2 SLP181 T02500233 53021 TSNO
KHBG 220153Z AUTO 15004KT 10SM SCT047 SCT055 BKN070 26/23 A3006 RMK AO2 SLP176 T02560228 TSNO
KHBG 220053Z AUTO 00000KT 10SM FEW048 26/22 A3002 RMK AO2 SLP164 T02610222 TSNO
KHBG 212353Z AUTO 16004KT 10SM CLR 27/22 A3001 RMK AO2 SLP160 T02670217 10333 20267 53010 TSNO
KHBG 212253Z AUTO VRB06KT 10SM FEW055 29/23 A3001 RMK AO2 SLP159 T02890228 TSNO
KHBG 212153Z AUTO 34003KT 10SM SCT046 32/23 A2998 RMK AO2 SLP150 T03220233 TSNO
KHBG 212053Z AUTO 09007KT 10SM SCT045 BKN055 33/22 A2998 RMK AO2 SLP149 T03280217 56025 TSNO
KHBG 211953Z AUTO VRB06KT 10SM CLR 32/22 A3000 RMK AO2 SLP155 T03220222 TSNO
KHBG 211853Z AUTO 12008KT 10SM FEW085 32/22 A3003 RMK AO2 SLP166 T03220222 TSNO
KHBG 211753Z AUTO 03007KT 10SM CLR 32/23 A3006 RMK AO2 SLP174 T03220233 10322 20228 58017 TSNO
KHBG 211653Z AUTO 13005KT 10SM CLR 31/23 A3008 RMK AO2 SLP181 T03110228 TSNO
KHBG 211553Z AUTO 12006KT 10SM FEW036 29/24 A3009 RMK AO2 SLP188 T02940244 TSNO
KHBG 211453Z AUTO 08003KT 10SM CLR 29/24 A3010 RMK AO2 SLP191 T02940244 51008 TSNO
KHBG 211353Z AUTO 11003KT 10SM CLR 25/24 A3010 RMK AO2 SLP191 T02500239 TSNO
KHBG 211337Z AUTO 00000KT 6SM BR SCT002 24/24 A3010 RMK AO2 T02440239 TSNO
KHBG 211327Z AUTO 00000KT 5SM BR BKN002 24/23 A3010 RMK AO2 T02390233 TSNO
KHBG 211319Z AUTO 00000KT 2SM BR OVC002 24/23 A3010 RMK AO2 T02390233 TSNO
KHBG 211312Z AUTO 00000KT 1/2SM FG VV002 23/23 A3010 RMK AO2 T02330233 TSNO
KHBG 211253Z AUTO 00000KT 1/4SM FG VV002 23/23 A3010 RMK AO2 SLP189 T02330228 TSNO
KHBG 211153Z AUTO 00000KT 1/4SM FG VV002 23/22 A3008 RMK AO2 SLP182 70025 T02280222 10244 20228 51007 TSNO
KHBG 211151Z AUTO 00000KT 1/4SM FG VV002 23/22 A3008 RMK AO2 TSNO
KHBG 211129Z AUTO 00000KT 1/2SM FG VV002 23/23 A3008 RMK AO2 T02280228 TSNO
KHBG 211118Z AUTO 00000KT 1/4SM FG VV002 23/23 A3008 RMK AO2 T02280228 TSNO
KHBG 211111Z AUTO 00000KT 1/2SM FG OVC002 23/23 A3008 RMK AO2 T02280228 TSNO
KHBG 211102Z AUTO 00000KT 1 3/4SM BR OVC002 23/22 A3007 RMK AO2 T02280222 TSNO
KHBG 211053Z AUTO 00000KT 3SM BR OVC002 23/23 A3007 RMK AO2 SLP180 T02280228 TSNO
KHBG 211048Z AUTO 00000KT 2SM BR OVC002 23/23 A3007 RMK AO2 TSNO
KHBG 211042Z AUTO 00000KT 3/4SM BR OVC002 23/23 A3007 RMK AO2 T02280228 TSNO
KHBG 211031Z AUTO 00000KT 1/4SM FG VV002 23/23 A3006 RMK AO2 T02280228 TSNO
KHBG 211022Z AUTO 00000KT 1 3/4SM BR OVC002 23/22 A3006 RMK AO2 T02280222 TSNO
KHBG 211012Z AUTO 00000KT 3SM BR BKN002 23/22 A3006 RMK AO2 T02280222 TSNO
KHBG 210953Z AUTO 12003KT 9SM FEW002 23/22 A3006 RMK AO2 SLP175 T02330222 TSNO
KHBG 210853Z AUTO 00000KT 10SM CLR 24/23 A3005 RMK AO2 SLP172 T02390228 56003 TSNO
KHBG 210753Z AUTO 00000KT 10SM FEW033 FEW042 24/23 A3005 RMK AO2 SLP173 T02390228 TSNO
KHBG 210653Z AUTO 00000KT 10SM CLR 24/23 A3005 RMK AO2 SLP173 T02390228 TSNO
KHBG 210553Z AUTO 00000KT 10SM CLR 24/24 A3006 RMK AO2 SLP175 T02440239 10283 20244 403390228 51009 TSNO
KHBG 210453Z AUTO 00000KT 10SM CLR 25/24 A3006 RMK AO2 SLP175 T02500239 TSNO
KHBG 210353Z AUTO 00000KT 10SM CLR 26/24 A3005 RMK AO2 SLP171 T02610239 TSNO
KHBG 210253Z AUTO 18005KT 10SM CLR 27/24 A3003 RMK AO2 SLP166 T02670239 53012 TSNO
KHBG 210153Z AUTO 16004KT 10SM CLR 27/24 A3002 RMK AO2 SLP161 T02670244 TSNO
KHBG 210053Z AUTO 12003KT 10SM CLR 27/25 A3001 RMK AO2 SLP157 T02720250 TSNO
KHBG 202353Z AUTO 14004KT 10SM CLR 29/24 A3000 RMK AO2 SLP154 60025 T02890244 10339 20272 53004 TSNO
KHBG 202253Z AUTO 14004KT 10SM CLR 31/25 A2999 RMK AO2 SLP151 T03060250 TSNO
KHBG 202153Z AUTO 13003KT 10SM FEW060 FEW090 28/24 A2999 RMK AO2 RAB11E36 SLP153 P0025 T02830239 TSNO
KHBG 202126Z AUTO 10005KT 3SM -RA FEW020 BKN046 OVC060 27/24 A3000 RMK AO2 RAB11 P0025 T02720244 TSNO
KHBG 202115Z AUTO 13009KT 1 1/2SM +RA FEW018 BKN041 OVC050 28/24 A3001 RMK AO2 RAB11 PRESRR P0018 T02830244 TSNO
KHBG 202053Z AUTO 11005KT 10SM SCT050 SCT100 32/22 A2999 RMK AO2 SLP151 T03220222 56018 TSNO
KHBG 201953Z AUTO 18004KT 10SM CLR 32/22 A3000 RMK AO2 SLP154 T03220217 TSNO
KHBG 201853Z AUTO 16004KT 10SM FEW046 33/22 A3002 RMK AO2 SLP162 T03330222 TSNO
KHBG 201753Z AUTO 09006KT 10SM FEW039 33/22 A3004 RMK AO2 SLP169 T03280222 10328 20228 58009 TSNO
KHBG 201653Z AUTO VRB06KT 10SM FEW035 FEW050 32/23 A3006 RMK AO2 SLP175 T03220228 TSNO
KHBG 201553Z AUTO 00000KT 10SM FEW029 31/23 A3007 RMK AO2 SLP179 T03060228 TSNO
KHBG 201453Z AUTO 00000KT 10SM CLR 30/24 A3007 RMK AO2 SLP178 T03000239 51016 TSNO
KHBG 201353Z AUTO 00000KT 10SM CLR 27/24 A3005 RMK AO2 SLP173 T02720239 TSNO
KHBG 201253Z AUTO 00000KT 10SM CLR 24/23 A3004 RMK AO2 SLP168 T02440228 TSNO
KHBG 231123Z 2312/2412 13003KT 6SM BR FEW015 
     FM231400 15004KT P6SM SCT025 
     FM231800 15005KT P6SM VCTS SCT050CB 
     FM240000 14003KT P6SM SCT100 
     FM240900 14003KT P6SM BKN015